Time;durP1;ratioP1;P1;durP2;ratioP2;P2;SDS_P1;SDS_P2;PMS_P1;PMS_P2;Temp;Humidity;BMP_temperature;BMP_pressure;BME280_temperature;BME280_humidity;BME280_pressure;Samples;Min_cycle;Max_cycle;Signal;HPM_P1;HPM_P2
2021/12/30 00:01:26;;;;;;;40.63;23.02;;;;;;;-4.37;83.09;97727.77;1787663;80;20966;-66
2021/12/30 00:03:53;;;;;;;39.70;22.50;;;;;;;-4.42;83.00;97738.02;1787652;80;21523;-64
2021/12/30 00:06:23;;;;;;;41.23;23.62;;;;;;;-4.44;83.08;97734.81;1787577;80;20832;-62
2021/12/30 00:08:53;;;;;;;35.88;22.75;;;;;;;-4.46;83.11;97736.83;1787660;80;21383;-68
2021/12/30 00:11:19;;;;;;;35.28;23.10;;;;;;;-4.43;83.16;97739.55;1787627;80;21422;-64
2021/12/30 00:13:47;;;;;;;37.17;22.52;;;;;;;-4.41;83.24;97746.19;1787689;80;20959;-67
2021/12/30 00:16:16;;;;;;;37.33;24.25;;;;;;;-4.36;83.20;97750.28;1787633;80;21110;-69
2021/12/30 00:18:43;;;;;;;33.73;21.60;;;;;;;-4.37;83.05;97763.56;1787566;80;20954;-61
2021/12/30 00:21:10;;;;;;;34.95;22.70;;;;;;;-4.38;83.17;97768.52;1787629;80;20958;-63
2021/12/30 00:23:38;;;;;;;35.98;22.15;;;;;;;-4.35;83.21;97761.55;1787583;80;20891;-62
2021/12/30 00:26:06;;;;;;;37.83;22.25;;;;;;;-4.33;83.15;97755.61;1787869;80;21501;-62
2021/12/30 00:28:34;;;;;;;36.30;22.37;;;;;;;-4.33;83.10;97757.73;1787819;80;21860;-65
2021/12/30 00:31:01;;;;;;;36.63;22.70;;;;;;;-4.34;83.05;97747.48;1787578;80;20891;-61
2021/12/30 00:33:28;;;;;;;40.20;24.02;;;;;;;-4.37;83.04;97748.69;1787592;80;20871;-70
2021/12/30 00:35:55;;;;;;;40.67;25.05;;;;;;;-4.40;83.09;97751.70;1787626;80;20919;-61
2021/12/30 00:38:22;;;;;;;36.75;22.90;;;;;;;-4.39;83.25;97740.74;1787638;80;20993;-63
2021/12/30 00:40:49;;;;;;;40.15;23.25;;;;;;;-4.33;83.27;97754.30;1787639;80;21126;-65
2021/12/30 00:43:16;;;;;;;32.85;21.00;;;;;;;-4.29;83.28;97755.53;1787553;80;21423;-63
2021/12/30 00:45:44;;;;;;;35.80;21.42;;;;;;;-4.26;83.28;97760.34;1787633;80;21430;-61
2021/12/30 00:48:11;;;;;;;36.03;22.40;;;;;;;-4.22;83.15;97767.61;1787618;80;20860;-67
2021/12/30 00:50:38;;;;;;;39.75;24.85;;;;;;;-4.24;83.07;97761.74;1787649;80;20896;-69
2021/12/30 00:53:06;;;;;;;35.83;23.45;;;;;;;-4.22;83.15;97771.53;1787685;80;21084;-67
2021/12/30 00:55:33;;;;;;;36.05;21.48;;;;;;;-4.17;83.18;97766.47;1788476;80;21470;-63
2021/12/30 00:58:00;;;;;;;38.88;22.50;;;;;;;-4.13;83.06;97766.07;1787622;80;20836;-68
2021/12/30 01:00:27;;;;;;;36.68;24.12;;;;;;;-4.18;82.95;97770.11;1787803;80;21010;-69
2021/12/30 01:02:54;;;;;;;37.20;23.83;;;;;;;-4.20;83.08;97778.66;1787608;80;20962;-69
2021/12/30 01:05:21;;;;;;;39.83;24.00;;;;;;;-4.19;83.11;97782.87;1787656;80;21582;-70
2021/12/30 01:07:48;;;;;;;41.08;25.82;;;;;;;-4.18;83.08;97779.27;1787647;80;20863;-61
2021/12/30 01:10:17;;;;;;;38.98;24.57;;;;;;;-4.16;83.13;97782.97;1787584;80;20904;-61
2021/12/30 01:12:44;;;;;;;37.58;23.05;;;;;;;-4.11;83.12;97782.36;1787780;80;20872;-63
2021/12/30 01:15:12;;;;;;;44.45;26.37;;;;;;;-4.13;82.98;97787.81;1787734;80;20899;-63
2021/12/30 01:17:59;;;;;;;37.30;24.72;;;;;;;-4.13;83.07;97784.38;1787897;80;21102;-61
2021/12/30 01:20:21;;;;;;;34.63;23.00;;;;;;;-4.10;83.11;97790.03;1749078;82;20911;-65
2021/12/30 01:22:49;;;;;;;34.55;22.62;;;;;;;-4.03;83.14;97793.45;1787579;80;20899;-69
2021/12/30 01:25:16;;;;;;;37.15;22.15;;;;;;;-4.01;82.93;97792.73;1792724;80;21431;-67
2021/12/30 01:27:43;;;;;;;35.78;23.77;;;;;;;-4.05;82.79;97797.27;1793193;80;20914;-68
2021/12/30 01:30:16;;;;;;;37.65;22.45;;;;;;;-4.12;82.89;97793.32;1793153;80;20871;-65
2021/12/30 01:32:43;;;;;;;35.88;22.80;;;;;;;-4.13;82.98;97794.84;1793423;80;21489;-70
2021/12/30 01:35:12;;;;;;;36.33;23.00;;;;;;;-4.11;83.00;97787.59;1793168;80;20894;-69
2021/12/30 01:37:39;;;;;;;42.17;23.12;;;;;;;-4.11;83.03;97791.52;1793458;80;21364;-63
2021/12/30 01:40:11;;;;;;;34.05;22.07;;;;;;;-4.09;83.00;97803.39;1793198;80;20946;-66
2021/12/30 01:42:37;;;;;;;34.80;21.12;;;;;;;-4.04;82.95;97810.13;1793244;80;21109;-66
2021/12/30 01:45:06;;;;;;;35.28;21.68;;;;;;;-4.03;82.88;97808.33;1793126;80;20950;-67
2021/12/30 01:47:33;;;;;;;35.63;22.40;;;;;;;-4.01;82.81;97815.47;1793360;80;20943;-64
2021/12/30 01:50:00;;;;;;;33.98;22.27;;;;;;;-4.01;82.81;97813.66;1793162;80;20860;-62
2021/12/30 01:52:28;;;;;;;42.03;24.25;;;;;;;-4.03;82.74;97809.64;1793160;80;20907;-66
2021/12/30 01:54:55;;;;;;;39.83;24.50;;;;;;;-4.06;82.77;97809.53;1793126;80;21122;-71
2021/12/30 01:57:22;;;;;;;38.05;24.02;;;;;;;-4.02;82.82;97812.54;1793069;80;20934;-67
2021/12/30 01:59:49;;;;;;;35.83;23.10;;;;;;;-4.02;82.85;97815.97;1793370;80;21352;-65
2021/12/30 02:02:16;;;;;;;32.88;22.15;;;;;;;-3.98;82.73;97815.07;1764760;80;20962;-66
2021/12/30 02:04:45;;;;;;;35.78;23.50;;;;;;;-3.98;82.60;97819.00;1793561;80;21475;-62
2021/12/30 02:07:13;;;;;;;33.48;22.27;;;;;;;-3.99;82.57;97821.30;1793327;80;21120;-62
2021/12/30 02:09:40;;;;;;;37.70;23.67;;;;;;;-4.00;82.54;97817.09;1793326;80;20883;-63
2021/12/30 02:12:08;;;;;;;40.78;25.35;;;;;;;-4.02;82.60;97817.77;1793403;80;20894;-65
2021/12/30 02:14:35;;;;;;;38.45;24.23;;;;;;;-4.01;82.75;97825.94;1793275;80;21510;-62
2021/12/30 02:17:04;;;;;;;35.63;22.22;;;;;;;-3.97;82.68;97824.52;1793338;80;20887;-68
2021/12/30 02:19:33;;;;;;;38.75;23.73;;;;;;;-3.98;82.57;97817.69;1793299;80;21117;-64
2021/12/30 02:22:00;;;;;;;37.90;23.75;;;;;;;-4.06;82.53;97817.88;1793225;80;20863;-67
2021/12/30 02:24:27;;;;;;;38.23;24.67;;;;;;;-4.09;82.67;97833.97;1790493;80;20852;-63
2021/12/30 02:26:54;;;;;;;41.98;25.23;;;;;;;-4.07;82.76;97824.14;1787691;80;20912;-66
2021/12/30 02:29:21;;;;;;;42.08;25.35;;;;;;;-4.06;82.82;97827.04;1787847;80;21419;-70
2021/12/30 02:31:48;;;;;;;48.25;30.55;;;;;;;-4.07;82.84;97821.52;1787754;80;21125;-64
2021/12/30 02:34:16;;;;;;;49.63;29.32;;;;;;;-4.09;82.90;97813.86;1787878;80;20919;-63
2021/12/30 02:36:46;;;;;;;39.90;26.15;;;;;;;-4.09;83.02;97820.89;1787721;80;20939;-66
2021/12/30 02:39:14;;;;;;;39.45;23.83;;;;;;;-4.11;83.02;97822.41;1757818;80;20962;-69
2021/12/30 02:41:41;;;;;;;43.35;25.85;;;;;;;-4.14;83.04;97827.25;1787737;80;20903;-63
2021/12/30 02:44:09;;;;;;;42.88;26.60;;;;;;;-4.19;83.19;97823.41;1787740;80;21785;-63
2021/12/30 02:46:37;;;;;;;45.60;26.62;;;;;;;-4.19;83.29;97819.48;1787661;80;20896;-67
2021/12/30 02:49:04;;;;;;;39.42;25.65;;;;;;;-4.17;83.38;97818.00;1787723;80;20955;-66
2021/12/30 02:51:31;;;;;;;42.58;26.37;;;;;;;-4.18;83.43;97818.99;1787700;80;20961;-65
2021/12/30 02:53:58;;;;;;;41.28;26.93;;;;;;;-4.19;83.53;97820.80;1787740;80;20832;-63
2021/12/30 02:56:26;;;;;;;41.63;26.48;;;;;;;-4.17;83.65;97821.92;1787930;80;21400;-67
2021/12/30 02:58:53;;;;;;;45.03;28.32;;;;;;;-4.17;83.70;97824.02;1787653;80;20954;-66
2021/12/30 03:01:27;;;;;;;41.85;24.80;;;;;;;-4.13;83.80;97834.08;1787592;80;20871;-67
2021/12/30 03:04:00;;;;;;;43.28;26.82;;;;;;;-4.09;83.79;97826.13;1787716;80;20967;-66
2021/12/30 03:06:27;;;;;;;46.23;26.40;;;;;;;-4.07;83.81;97824.14;1787934;80;20911;-62
2021/12/30 03:08:54;;;;;;;50.67;29.18;;;;;;;-4.07;83.83;97821.52;1787691;80;21078;-69
2021/12/30 03:11:22;;;;;;;41.83;27.10;;;;;;;-4.08;83.84;97821.20;1787649;80;20864;-61
2021/12/30 03:13:48;;;;;;;47.78;28.02;;;;;;;-4.10;83.85;97825.84;1787583;80;20887;-68
2021/12/30 03:16:19;;;;;;;50.90;29.30;;;;;;;-4.18;83.93;97822.42;1787691;80;21506;-70
2021/12/30 03:18:47;;;;;;;46.30;27.48;;;;;;;-4.17;84.14;97821.92;1787749;80;20940;-68
2021/12/30 03:21:18;;;;;;;50.15;29.50;;;;;;;-4.11;84.14;97816.38;1787692;80;21894;-63
2021/12/30 03:23:45;;;;;;;48.78;29.05;;;;;;;-4.07;84.28;97821.00;1788011;80;20958;-65
2021/12/30 03:26:12;;;;;;;47.35;29.52;;;;;;;-3.99;84.16;97821.30;1793291;80;20946;-67
2021/12/30 03:28:40;;;;;;;50.43;29.00;;;;;;;-3.98;84.10;97822.92;1793506;80;20914;-68
2021/12/30 03:31:08;;;;;;;52.10;28.75;;;;;;;-3.98;84.03;97826.84;1793387;80;21389;-68
2021/12/30 03:33:35;;;;;;;47.35;27.85;;;;;;;-4.01;84.09;97827.24;1793241;80;21121;-61
2021/12/30 03:36:04;;;;;;;45.65;28.98;;;;;;;-4.02;84.11;97828.23;1793193;80;20946;-70
2021/12/30 03:38:35;;;;;;;53.90;30.82;;;;;;;-4.06;84.12;97839.62;1793554;80;20824;-63
2021/12/30 03:41:03;;;;;;;49.23;28.70;;;;;;;-4.09;84.21;97839.20;1793447;80;21001;-69
2021/12/30 03:43:30;;;;;;;53.55;29.37;;;;;;;-4.08;84.44;97835.59;1793258;80;20839;-65
2021/12/30 03:45:57;;;;;;;54.38;31.00;;;;;;;-4.03;84.37;97828.77;1793375;80;21821;-65
2021/12/30 03:48:31;;;;;;;60.92;34.73;;;;;;;-4.02;84.41;97829.55;1793177;80;20934;-65
2021/12/30 03:50:52;;;;;;;56.48;34.70;;;;;;;-4.02;84.37;97833.47;1792141;80;21415;-62
2021/12/30 03:53:19;;;;;;;61.70;34.88;;;;;;;-4.02;84.36;97834.77;1793277;80;20880;-62
2021/12/30 03:55:48;;;;;;;54.80;31.85;;;;;;;-4.04;84.37;97828.45;1793337;80;20930;-65
2021/12/30 03:58:16;;;;;;;53.60;29.72;;;;;;;-4.03;84.45;97838.41;1793259;80;20923;-66
2021/12/30 04:00:44;;;;;;;52.40;30.43;;;;;;;-4.02;84.42;97849.16;1793179;80;20911;-66
2021/12/30 04:03:10;;;;;;;61.88;35.13;;;;;;;-4.01;84.54;97849.48;1793210;80;20927;-62
2021/12/30 04:05:37;;;;;;;51.50;31.87;;;;;;;-3.98;84.52;97852.48;1793205;80;20964;-65
2021/12/30 04:08:07;;;;;;;54.25;31.25;;;;;;;-3.96;84.55;97852.30;1793253;80;20899;-65
2021/12/30 04:10:35;;;;;;;60.17;32.33;;;;;;;-3.93;84.40;97859.76;1793434;80;21914;-69
2021/12/30 04:13:04;;;;;;;58.92;31.12;;;;;;;-3.93;84.47;97861.84;1793155;80;20993;-65
2021/12/30 04:15:31;;;;;;;56.80;31.93;;;;;;;-3.89;84.45;97860.95;1793232;80;20828;-66
2021/12/30 04:17:57;;;;;;;55.40;32.17;;;;;;;-3.89;84.45;97870.92;1793207;80;21407;-60
2021/12/30 04:20:24;;;;;;;54.23;32.10;;;;;;;-3.84;84.45;97877.64;1793257;80;20923;-61
2021/12/30 04:22:51;;;;;;;47.43;30.35;;;;;;;-3.80;84.29;97884.60;1793079;80;21042;-70
2021/12/30 04:25:18;;;;;;;46.37;27.77;;;;;;;-3.79;84.27;97878.38;1790069;80;20820;-68
2021/12/30 04:27:45;;;;;;;55.52;30.48;;;;;;;-3.76;84.17;97884.49;1788298;80;21403;-68
2021/12/30 04:30:14;;;;;;;48.87;27.27;;;;;;;-3.82;84.06;97883.51;1788196;80;20907;-67
2021/12/30 04:32:40;;;;;;;63.85;32.73;;;;;;;-3.85;84.09;97884.40;1788231;80;21354;-65
2021/12/30 04:35:08;;;;;;;53.75;30.17;;;;;;;-3.88;84.15;97888.72;1788204;80;21123;-69
2021/12/30 04:37:35;;;;;;;59.83;32.25;;;;;;;-3.91;84.23;97890.45;1788300;80;20911;-61
2021/12/30 04:40:04;;;;;;;56.20;31.73;;;;;;;-3.88;84.30;97903.11;1788401;80;20906;-70
2021/12/30 04:42:32;;;;;;;57.50;32.28;;;;;;;-3.84;84.31;97902.50;1788162;80;21007;-65
2021/12/30 04:44:59;;;;;;;53.30;28.52;;;;;;;-3.81;84.30;97899.98;1788239;80;21453;-65
2021/12/30 04:47:26;;;;;;;56.53;30.32;;;;;;;-3.77;84.22;97905.15;1788204;80;21155;-64
2021/12/30 04:49:55;;;;;;;65.95;33.15;;;;;;;-3.81;84.22;97902.11;1788225;80;21040;-69
2021/12/30 04:52:21;;;;;;;62.70;33.50;;;;;;;-3.83;84.34;97908.05;1788099;80;20867;-70
2021/12/30 04:54:48;;;;;;;59.80;31.52;;;;;;;-3.80;84.42;97909.47;1788183;80;20907;-63
2021/12/30 04:57:16;;;;;;;62.17;30.70;;;;;;;-3.77;84.37;97903.84;1788101;80;20966;-69
2021/12/30 04:59:43;;;;;;;62.70;31.40;;;;;;;-3.78;84.34;97899.59;1788187;80;21721;-69
2021/12/30 05:02:12;;;;;;;60.65;34.00;;;;;;;-3.81;84.43;97902.61;1787975;80;20903;-69
2021/12/30 05:04:44;;;;;;;62.95;34.60;;;;;;;-3.84;84.57;97910.88;1788057;80;20871;-62
2021/12/30 05:07:10;;;;;;;69.45;32.67;;;;;;;-3.79;84.69;97911.09;1788443;80;20883;-68
2021/12/30 05:09:37;;;;;;;64.77;34.18;;;;;;;-3.73;84.75;97909.77;1788203;80;20947;-69
2021/12/30 05:12:05;;;;;;;64.80;33.13;;;;;;;-3.68;84.72;97911.29;1788174;80;21110;-69
2021/12/30 05:14:32;;;;;;;56.53;32.70;;;;;;;-3.61;84.64;97912.59;1788129;80;21353;-68
2021/12/30 05:17:03;;;;;;;57.33;33.02;;;;;;;-3.61;84.55;97909.97;1788170;80;20902;-61
2021/12/30 05:19:28;;;;;;;59.63;33.88;;;;;;;-3.61;84.58;97908.66;1788010;80;21400;-69
2021/12/30 05:21:55;;;;;;;59.93;33.45;;;;;;;-3.63;84.59;97909.38;1788167;80;20958;-65
2021/12/30 05:24:23;;;;;;;65.85;33.42;;;;;;;-3.63;84.60;97908.06;1788071;80;20966;-66
2021/12/30 05:26:49;;;;;;;61.05;34.80;;;;;;;-3.64;84.63;97912.98;1788217;80;20809;-66
2021/12/30 05:29:16;;;;;;;63.52;36.40;;;;;;;-3.64;84.71;97911.67;1788146;80;20943;-63
2021/12/30 05:31:44;;;;;;;79.05;41.15;;;;;;;-3.64;84.65;97916.91;1788339;80;21375;-65
2021/12/30 05:34:11;;;;;;;66.82;34.43;;;;;;;-3.62;84.81;97923.56;1788434;80;20895;-65
2021/12/30 05:36:37;;;;;;;70.00;33.60;;;;;;;-3.59;84.78;97921.86;1788267;80;21449;-68
2021/12/30 05:39:04;;;;;;;70.72;35.75;;;;;;;-3.55;84.77;97913.89;1788285;80;20954;-68
2021/12/30 05:41:32;;;;;;;68.97;37.78;;;;;;;-3.55;84.79;97913.89;1788294;80;20840;-68
2021/12/30 05:43:59;;;;;;;74.72;37.03;;;;;;;-3.51;84.84;97912.99;1788370;80;21416;-70
2021/12/30 05:46:27;;;;;;;69.27;37.93;;;;;;;-3.47;84.78;97904.53;1788364;80;21498;-66
2021/12/30 05:48:55;;;;;;;83.90;43.52;;;;;;;-3.48;84.77;97904.21;1788307;80;21881;-69
2021/12/30 05:51:22;;;;;;;71.17;39.20;;;;;;;-3.47;84.76;97901.09;1788276;80;20836;-69
2021/12/30 05:53:48;;;;;;;74.15;38.00;;;;;;;-3.46;84.81;97898.77;1788317;80;20824;-69
2021/12/30 05:56:15;;;;;;;75.90;38.98;;;;;;;-3.52;84.68;97905.63;1788126;80;20973;-66
2021/12/30 05:58:42;;;;;;;72.80;36.95;;;;;;;-3.59;84.81;97913.19;1788467;80;21376;-62
2021/12/30 06:01:08;;;;;;;69.72;37.05;;;;;;;-3.62;84.98;97913.09;1788319;80;21119;-64
2021/12/30 06:03:35;;;;;;;83.67;44.00;;;;;;;-3.61;85.08;97926.98;1788110;80;20911;-66
2021/12/30 06:06:02;;;;;;;83.70;42.20;;;;;;;-3.60;85.11;97920.23;1788301;80;20895;-68
2021/12/30 06:08:29;;;;;;;71.33;40.52;;;;;;;-3.58;85.22;97929.21;1788295;80;20888;-66
2021/12/30 06:10:56;;;;;;;74.17;39.73;;;;;;;-3.55;85.24;97926.17;1788202;80;20954;-62
2021/12/30 06:13:22;;;;;;;76.47;38.60;;;;;;;-3.52;85.21;97938.86;1788482;80;21733;-63
2021/12/30 06:15:49;;;;;;;72.82;37.35;;;;;;;-3.52;85.26;97950.65;1788247;80;20859;-62
2021/12/30 06:18:16;;;;;;;70.62;37.13;;;;;;;-3.48;85.32;97957.08;1788404;80;20907;-68
2021/12/30 06:20:43;;;;;;;70.15;39.98;;;;;;;-3.43;85.33;97962.52;1788272;80;21490;-68
2021/12/30 06:23:10;;;;;;;69.72;37.67;;;;;;;-3.39;85.30;97966.87;1788296;80;20915;-70
2021/12/30 06:25:37;;;;;;;72.40;38.42;;;;;;;-3.42;85.23;97965.45;1788058;80;21115;-64
2021/12/30 06:28:04;;;;;;;76.28;40.00;;;;;;;-3.43;85.35;97970.38;1787668;80;20920;-67
2021/12/30 06:30:32;;;;;;;81.00;41.60;;;;;;;-3.37;85.45;97980.06;1787606;80;20839;-63
2021/12/30 06:32:59;;;;;;;75.60;40.65;;;;;;;-3.31;85.34;97991.03;1787717;80;20907;-66
2021/12/30 06:35:31;;;;;;;81.87;41.85;;;;;;;-3.24;85.33;97993.64;1787641;80;20958;-69
2021/12/30 06:37:56;;;;;;;80.25;45.98;;;;;;;-3.17;85.31;97993.94;1787549;80;21027;-69
2021/12/30 06:40:23;;;;;;;78.22;42.62;;;;;;;-3.12;85.16;97999.38;1787764;80;20994;-69
2021/12/30 06:42:50;;;;;;;86.47;41.77;;;;;;;-3.15;85.10;97993.23;1787825;80;20871;-63
2021/12/30 06:45:17;;;;;;;78.42;44.83;;;;;;;-3.15;85.13;97997.66;1787742;80;20876;-65
2021/12/30 06:47:47;;;;;;;96.65;48.02;;;;;;;-3.16;85.09;97998.19;1787727;80;20990;-63
2021/12/30 06:50:15;;;;;;;98.45;51.45;;;;;;;-3.13;85.19;97991.21;1787667;80;21110;-67
2021/12/30 06:52:43;;;;;;;90.62;46.92;;;;;;;-3.05;85.15;97992.81;1787648;80;20940;-63
2021/12/30 06:55:11;;;;;;;87.50;44.70;;;;;;;-3.02;85.04;97986.68;1787607;80;20899;-63
2021/12/30 06:57:39;;;;;;;97.72;52.48;;;;;;;-2.97;85.05;97997.86;1787587;80;21451;-67
2021/12/30 07:00:08;;;;;;;89.80;46.15;;;;;;;-2.93;84.95;98007.73;1788015;80;20880;-69
2021/12/30 07:02:36;;;;;;;89.62;47.25;;;;;;;-2.90;84.90;98005.20;1787433;80;21114;-71
2021/12/30 07:05:03;;;;;;;96.63;57.62;;;;;;;-2.86;84.84;98002.47;1781485;80;21029;-70
2021/12/30 07:07:30;;;;;;;107.80;55.52;;;;;;;-2.82;84.75;98003.66;1785982;80;21336;-68
2021/12/30 07:09:58;;;;;;;95.90;47.43;;;;;;;-2.81;84.71;98002.66;1784423;80;21021;-70
2021/12/30 07:12:25;;;;;;;88.20;44.08;;;;;;;-2.82;84.66;98003.66;1784630;80;21105;-63
2021/12/30 07:14:52;;;;;;;85.15;43.98;;;;;;;-2.81;84.70;98002.66;1784938;80;21477;-70
2021/12/30 07:17:19;;;;;;;92.33;47.08;;;;;;;-2.79;84.69;98001.45;1784063;80;21097;-71
2021/12/30 07:19:46;;;;;;;85.92;45.08;;;;;;;-2.72;84.76;98004.05;1784520;80;20911;-71
2021/12/30 07:22:14;;;;;;;89.35;44.50;;;;;;;-2.64;84.77;98013.02;1784156;80;21034;-67
2021/12/30 07:24:41;;;;;;;92.35;45.50;;;;;;;-2.53;84.76;98015.49;1785286;80;20836;-66
2021/12/30 07:27:08;;;;;;;96.80;47.95;;;;;;;-2.46;84.59;98018.90;1785544;80;21380;-65
2021/12/30 07:29:35;;;;;;;85.92;43.68;;;;;;;-2.45;84.34;98021.84;1785870;80;20875;-67
2021/12/30 07:32:03;;;;;;;80.47;44.55;;;;;;;-2.46;84.21;98020.21;1786094;80;20876;-65
2021/12/30 07:34:30;;;;;;;86.75;42.85;;;;;;;-2.47;84.11;98023.33;1785931;80;21343;-69
2021/12/30 07:36:56;;;;;;;85.50;42.70;;;;;;;-2.51;84.00;98026.58;1785662;80;20947;-69
2021/12/30 07:39:23;;;;;;;90.95;48.42;;;;;;;-2.54;84.03;98032.26;1785901;80;21553;-66
2021/12/30 07:41:50;;;;;;;85.07;43.08;;;;;;;-2.54;84.11;98034.87;1785838;80;20817;-66
2021/12/30 07:44:18;;;;;;;87.78;43.42;;;;;;;-2.55;84.05;98039.81;1785910;80;20914;-62
2021/12/30 07:46:45;;;;;;;85.22;41.70;;;;;;;-2.58;84.07;98041.52;1786138;80;20919;-64
2021/12/30 07:49:12;;;;;;;87.05;45.50;;;;;;;-2.55;84.15;98038.50;1786125;80;21403;-62
2021/12/30 07:51:38;;;;;;;91.15;46.77;;;;;;;-2.48;84.24;98043.22;1786032;80;21125;-63
2021/12/30 07:54:05;;;;;;;88.07;46.55;;;;;;;-2.39;84.27;98041.98;1790350;78;21459;-69
2021/12/30 07:56:34;;;;;;;90.45;48.70;;;;;;;-2.30;84.17;98039.42;1819991;78;21435;-67
2021/12/30 07:59:01;;;;;;;86.15;46.60;;;;;;;-2.27;84.00;98035.89;1817583;78;20844;-69
2021/12/30 08:01:28;;;;;;;85.07;47.60;;;;;;;-2.22;84.00;98043.14;1809685;78;20928;-71
2021/12/30 08:03:55;;;;;;;97.78;50.03;;;;;;;-2.22;83.99;98043.95;1785921;80;21113;-64
2021/12/30 08:06:26;;;;;;;100.80;55.85;;;;;;;-2.19;83.83;98042.73;1797585;78;21367;-67
2021/12/30 08:08:50;;;;;;;102.25;52.20;;;;;;;-2.16;83.83;98047.55;1819338;78;20883;-70
2021/12/30 08:11:19;;;;;;;91.67;48.92;;;;;;;-2.14;83.79;98045.52;1785129;78;20961;-63
2021/12/30 08:13:46;;;;;;;108.17;52.00;;;;;;;-2.11;83.76;98055.10;1779506;80;21124;-71
2021/12/30 08:16:13;;;;;;;99.47;48.83;;;;;;;-2.08;83.77;98055.20;1779621;80;21323;-66
2021/12/30 08:18:41;;;;;;;84.37;47.15;;;;;;;-2.01;83.79;98054.66;1780826;80;20874;-66
2021/12/30 08:21:09;;;;;;;102.00;49.70;;;;;;;-1.93;83.74;98058.34;1792740;78;20945;-68
2021/12/30 08:23:36;;;;;;;97.78;50.17;;;;;;;-1.84;83.60;98062.36;1774539;80;21580;-70
2021/12/30 08:26:06;;;;;;;91.42;50.63;;;;;;;-1.81;83.46;98061.92;1774757;80;20898;-70
2021/12/30 08:28:33;;;;;;;91.30;47.40;;;;;;;-1.75;83.40;98055.04;1738352;80;21065;-63
2021/12/30 08:30:59;;;;;;;93.85;47.43;;;;;;;-1.70;83.31;98049.46;1762145;81;20835;-62
2021/12/30 08:33:26;;;;;;;88.33;45.17;;;;;;;-1.65;83.13;98050.92;1761623;81;20942;-63
2021/12/30 08:35:53;;;;;;;90.47;46.45;;;;;;;-1.60;83.05;98050.31;1761239;81;21205;-63
2021/12/30 08:38:19;;;;;;;89.67;47.25;;;;;;;-1.59;82.93;98049.28;1761885;81;20911;-66
2021/12/30 08:40:47;;;;;;;96.75;48.85;;;;;;;-1.58;82.84;98053.00;1761392;81;21123;-70
2021/12/30 08:43:16;;;;;;;92.47;46.63;;;;;;;-1.53;82.93;98047.14;1761711;81;20982;-69
2021/12/30 08:45:45;;;;;;;93.07;50.25;;;;;;;-1.45;82.83;98055.56;1761479;81;20965;-66
2021/12/30 08:48:12;;;;;;;85.80;47.17;;;;;;;-1.37;82.79;98057.13;1747088;80;20946;-62
2021/12/30 08:50:39;;;;;;;97.33;51.23;;;;;;;-1.27;82.59;98050.09;1735120;81;20839;-69
2021/12/30 08:53:06;;;;;;;93.45;48.38;;;;;;;-1.20;82.46;98052.16;1754190;81;21701;-66
2021/12/30 08:55:32;;;;;;;100.65;47.43;;;;;;;-1.13;82.21;98050.29;1745046;81;20843;-63
2021/12/30 08:58:00;;;;;;;73.75;42.05;;;;;;;-1.09;82.04;98052.27;1741819;80;20887;-69
2021/12/30 09:00:30;;;;;;;87.08;45.33;;;;;;;-1.09;81.88;98041.76;1741279;80;20903;-64
2021/12/30 09:02:58;;;;;;;85.15;45.63;;;;;;;-1.15;81.79;98041.78;1745626;80;20958;-68
2021/12/30 09:05:25;;;;;;;84.52;44.67;;;;;;;-1.16;81.83;98047.58;1741591;81;21114;-66
2021/12/30 09:07:52;;;;;;;95.05;45.67;;;;;;;-1.15;81.89;98045.23;1748390;81;20875;-70
2021/12/30 09:10:19;;;;;;;95.55;47.27;;;;;;;-1.08;81.87;98047.80;1761816;81;21454;-70
2021/12/30 09:12:49;;;;;;;79.87;41.55;;;;;;;-1.01;81.87;98045.41;1760118;81;20945;-68
2021/12/30 09:15:17;;;;;;;83.78;43.55;;;;;;;-0.93;81.70;98033.33;1759944;81;21116;-66
2021/12/30 09:17:47;;;;;;;90.75;48.00;;;;;;;-0.91;81.61;98033.09;1742395;81;22114;-65
2021/12/30 09:20:15;;;;;;;92.05;48.95;;;;;;;-0.93;81.49;98028.06;1746278;80;21470;-66
2021/12/30 09:22:43;;;;;;;97.27;49.53;;;;;;;-0.92;81.55;98031.50;1720103;81;33683;-67
2021/12/30 09:25:10;;;;;;;92.33;48.00;;;;;;;-0.87;81.63;98030.32;1748587;81;20926;-67
2021/12/30 09:27:39;;;;;;;106.97;54.15;;;;;;;-0.83;81.56;98028.89;1784654;80;21445;-67
2021/12/30 09:30:09;;;;;;;112.85;60.15;;;;;;;-0.76;81.67;98018.61;1781319;80;21672;-67
2021/12/30 09:32:37;;;;;;;89.20;47.17;;;;;;;-0.66;81.61;98022.55;1768382;79;20915;-65
2021/12/30 09:35:07;;;;;;;90.70;49.63;;;;;;;-0.60;81.38;98026.42;1796317;78;21038;-59
2021/12/30 09:37:35;;;;;;;90.12;47.93;;;;;;;-0.61;81.37;98024.80;1780846;78;20945;-61
2021/12/30 09:40:05;;;;;;;101.60;49.80;;;;;;;-0.58;81.35;98019.12;1766328;80;20975;-65
2021/12/30 09:42:35;;;;;;;91.05;50.17;;;;;;;-0.56;81.40;98021.52;1758546;80;21098;-69
2021/12/30 09:45:05;;;;;;;80.80;41.92;;;;;;;-0.49;81.46;98020.94;1788414;78;20979;-62
2021/12/30 09:47:34;;;;;;;70.87;38.58;;;;;;;-0.41;81.49;98022.78;1802358;78;20892;-68
2021/12/30 09:50:03;;;;;;;74.37;39.53;;;;;;;-0.35;81.27;98010.05;1787631;78;20947;-63
2021/12/30 09:52:30;;;;;;;83.65;44.18;;;;;;;-0.37;81.07;98016.05;1778819;80;20939;-62
2021/12/30 09:54:57;;;;;;;87.88;45.60;;;;;;;-0.38;81.26;98018.41;1765520;78;21051;-64
2021/12/30 09:57:24;;;;;;;88.97;43.78;;;;;;;-0.32;81.31;98025.41;1795568;78;21036;-64
2021/12/30 09:59:50;;;;;;;77.37;41.37;;;;;;;-0.24;81.20;98024.31;1770894;80;20864;-63
2021/12/30 10:02:18;;;;;;;83.97;45.45;;;;;;;-0.23;81.09;98031.98;1775666;80;20883;-62
2021/12/30 10:04:45;;;;;;;80.65;42.23;;;;;;;-0.22;81.21;98030.97;1774351;79;20954;-63
2021/12/30 10:07:21;;;;;;;77.60;41.35;;;;;;;-0.12;81.25;98033.86;1766873;78;21128;-65
2021/12/30 10:09:59;;;;;;;71.77;40.23;;;;;;;-0.05;81.22;98026.69;1761431;80;20864;-64
2021/12/30 10:12:39;;;;;;;76.37;38.88;;;;;;;0.02;81.15;98027.95;1756956;81;20915;-65
2021/12/30 10:15:08;;;;;;;82.67;44.05;;;;;;;0.06;80.97;98019.08;1773903;78;21505;-67
2021/12/30 10:17:35;;;;;;;83.58;45.03;;;;;;;0.03;80.89;98022.14;1777633;78;20989;-63
2021/12/30 10:20:24;;;;;;;83.37;44.48;;;;;;;0.00;81.04;98016.30;1767728;78;20934;-64
2021/12/30 10:22:52;;;;;;;77.82;41.55;;;;;;;0.05;81.09;98026.70;1787217;78;20954;-65
2021/12/30 10:25:33;;;;;;;77.82;44.60;;;;;;;0.09;81.12;98023.91;1793295;78;20847;-67
2021/12/30 10:28:28;;;;;;;81.17;45.85;;;;;;;0.13;81.06;98019.79;1776360;78;21577;-66
2021/12/30 10:31:03;;;;;;;76.37;42.98;;;;;;;0.11;81.08;98021.85;1772384;78;20997;-71
2021/12/30 10:33:30;;;;;;;89.72;45.88;;;;;;;0.08;81.16;98017.02;1779951;78;21588;-71
2021/12/30 10:35:57;;;;;;;83.67;44.77;;;;;;;0.03;81.33;98011.10;1805331;78;20962;-65
2021/12/30 10:38:30;;;;;;;81.63;44.90;;;;;;;0.03;81.54;98011.10;1776635;78;21640;-69
2021/12/30 10:41:02;;;;;;;75.52;43.65;;;;;;;0.11;81.65;98012.63;1761797;80;20973;-65
2021/12/30 10:43:44;;;;;;;83.95;45.40;;;;;;;0.18;81.70;98010.20;1757130;78;21073;-71
2021/12/30 10:46:15;;;;;;;93.47;52.25;;;;;;;0.22;81.83;98007.91;1791835;78;22473;-67
2021/12/30 10:49:05;;;;;;;92.50;50.25;;;;;;;0.29;81.82;98007.30;1767822;78;20832;-65
2021/12/30 10:51:48;;;;;;;86.47;47.08;;;;;;;0.34;81.87;98008.76;1777661;78;20907;-67
2021/12/30 10:54:30;;;;;;;89.62;47.65;;;;;;;0.38;81.91;97995.41;1780992;80;20974;-69
2021/12/30 10:57:01;;;;;;;92.80;48.25;;;;;;;0.38;81.85;98004.64;1788220;78;21458;-69
2021/12/30 10:59:37;;;;;;;90.10;47.50;;;;;;;0.35;81.98;98001.97;1786958;80;21067;-64
2021/12/30 11:02:16;;;;;;;93.17;50.73;;;;;;;0.35;82.08;98003.80;1788234;78;20950;-69
2021/12/30 11:05:00;;;;;;;86.50;50.25;;;;;;;0.35;82.21;98001.97;1783522;78;21022;-67
2021/12/30 11:07:44;;;;;;;85.97;46.13;;;;;;;0.37;82.32;97992.51;1796763;78;20997;-64
2021/12/30 11:10:11;;;;;;;80.77;44.63;;;;;;;0.39;82.34;97989.13;1817934;78;21101;-68
2021/12/30 11:12:42;;;;;;;81.40;46.18;;;;;;;0.37;82.50;97984.09;1794273;78;20918;-68
2021/12/30 11:15:25;;;;;;;82.95;44.85;;;;;;;0.39;82.66;97985.98;1765963;78;21489;-65
2021/12/30 11:18:10;;;;;;;81.22;45.28;;;;;;;0.44;82.81;97986.12;1755013;81;21025;-63
2021/12/30 11:20:44;;;;;;;86.57;42.83;;;;;;;0.47;82.84;97979.59;1756264;81;20999;-62
2021/12/30 11:23:12;;;;;;;78.10;40.78;;;;;;;0.50;82.91;97976.48;1756878;81;21282;-67